createdAt,value
2022-08-27T00:00:15.559Z,21.62
2022-08-27T00:02:43.255Z,21.75
2022-08-27T00:05:11.938Z,21.68
2022-08-27T00:07:39.184Z,21.73
2022-08-27T00:10:08.230Z,21.52
2022-08-27T00:12:35.333Z,21.50
2022-08-27T00:15:03.557Z,21.55
2022-08-27T00:17:30.165Z,21.53
2022-08-27T00:19:56.804Z,21.35
2022-08-27T00:22:23.374Z,21.34
2022-08-27T00:24:49.862Z,21.41
2022-08-27T00:27:16.726Z,21.46
2022-08-27T00:29:43.328Z,21.27
2022-08-27T00:32:09.963Z,21.42
2022-08-27T00:34:36.717Z,21.44
2022-08-27T00:37:03.607Z,21.64
2022-08-27T00:39:30.326Z,21.66
2022-08-27T00:41:56.839Z,21.49
2022-08-27T00:44:23.549Z,21.34
2022-08-27T00:46:54.297Z,21.37
2022-08-27T00:49:23.288Z,21.22
2022-08-27T00:51:55.935Z,21.10
2022-08-27T00:54:23.238Z,21.13
2022-08-27T00:56:51.698Z,21.15
2022-08-27T00:59:21.468Z,21.11
2022-08-27T01:02:06.243Z,21.16
2022-08-27T01:04:34.659Z,21.13
2022-08-27T01:07:02.431Z,21.13
2022-08-27T01:09:29.530Z,21.11
2022-08-27T01:11:58.099Z,21.18
2022-08-27T01:14:25.289Z,21.14
2022-08-27T01:16:56.578Z,20.95
2022-08-27T01:19:32.267Z,20.96
2022-08-27T01:22:28.652Z,21.02
2022-08-27T01:24:58.672Z,21.03
2022-08-27T01:27:28.234Z,20.94
2022-08-27T01:29:55.286Z,20.92
2022-08-27T01:32:25.570Z,20.95
2022-08-27T01:34:52.717Z,20.90
2022-08-27T01:37:24.037Z,21.03
2022-08-27T01:39:52.518Z,20.93
2022-08-27T01:42:20.665Z,20.83
2022-08-27T01:44:57.013Z,21.02
2022-08-27T01:47:30.309Z,20.94
2022-08-27T01:49:57.924Z,20.92
2022-08-27T01:52:27.732Z,21.06
2022-08-27T01:54:54.771Z,21.12
2022-08-27T01:57:25.809Z,21.04
2022-08-27T01:59:52.628Z,20.98
2022-08-27T02:02:19.222Z,21.08
2022-08-27T02:04:45.799Z,21.09
2022-08-27T02:07:12.859Z,21.07
2022-08-27T02:09:39.463Z,21.05
2022-08-27T02:12:06.324Z,21.04
2022-08-27T02:14:32.881Z,21.05
2022-08-27T02:16:59.402Z,21.09
2022-08-27T02:19:26.919Z,21.11
2022-08-27T02:21:53.830Z,21.15
2022-08-27T02:24:20.395Z,20.98
2022-08-27T02:26:46.894Z,21.08
2022-08-27T02:29:13.423Z,21.11
2022-08-27T02:31:41.336Z,21.17
2022-08-27T02:34:08.461Z,21.04
2022-08-27T02:36:37.271Z,21.04
2022-08-27T02:39:06.097Z,21.16
2022-08-27T02:41:32.582Z,21.18
2022-08-27T02:43:59.076Z,21.15
2022-08-27T02:46:27.790Z,21.15
2022-08-27T02:48:54.374Z,21.19
2022-08-27T02:51:21.031Z,21.13
2022-08-27T02:53:48.537Z,21.13
2022-08-27T02:56:15.129Z,21.14
2022-08-27T02:58:48.673Z,21.16
2022-08-27T03:01:15.582Z,21.20
2022-08-27T03:03:42.134Z,21.24
2022-08-27T03:06:08.863Z,21.25
2022-08-27T03:08:51.958Z,21.22
2022-08-27T03:11:19.053Z,21.19
2022-08-27T03:13:45.532Z,21.09
2022-08-27T03:16:12.046Z,21.04
2022-08-27T03:18:38.599Z,21.11
2022-08-27T03:21:05.122Z,21.15
2022-08-27T03:23:35.271Z,21.03
2022-08-27T03:26:05.374Z,20.98
2022-08-27T03:28:36.179Z,21.00
2022-08-27T03:31:06.614Z,21.03
2022-08-27T03:33:38.657Z,21.09
2022-08-27T03:36:07.512Z,21.16
2022-08-27T03:38:35.734Z,21.11
2022-08-27T03:41:03.126Z,21.14
2022-08-27T03:43:29.704Z,21.07
2022-08-27T03:46:01.806Z,21.06
2022-08-27T03:48:32.729Z,20.96
2022-08-27T03:51:03.482Z,20.93
2022-08-27T03:53:29.995Z,20.95
2022-08-27T03:55:56.572Z,20.97
2022-08-27T03:58:23.065Z,20.93
2022-08-27T04:00:49.587Z,21.00
2022-08-27T04:03:16.132Z,21.00
2022-08-27T04:05:45.447Z,21.07
2022-08-27T04:08:13.318Z,21.05
2022-08-27T04:10:42.735Z,20.98
2022-08-27T04:13:09.386Z,21.08
2022-08-27T04:15:39.494Z,20.83
2022-08-27T04:18:07.487Z,20.84
2022-08-27T04:20:35.745Z,20.85
2022-08-27T04:23:02.954Z,20.97
2022-08-27T04:25:29.513Z,20.92
2022-08-27T04:27:56.169Z,20.91
2022-08-27T04:30:22.681Z,20.91
2022-08-27T04:32:49.394Z,20.81
2022-08-27T04:35:16.278Z,20.81
2022-08-27T04:37:43.250Z,20.72
2022-08-27T04:40:10.285Z,20.68
2022-08-27T04:42:36.888Z,20.71
2022-08-27T04:45:04.673Z,20.71
2022-08-27T04:47:31.310Z,20.80
2022-08-27T04:49:57.904Z,20.93
2022-08-27T04:52:25.006Z,20.91
2022-08-27T04:54:52.098Z,20.97
2022-08-27T04:57:18.871Z,20.91
2022-08-27T04:59:45.573Z,20.86
2022-08-27T05:02:12.313Z,20.88
2022-08-27T05:04:40.643Z,20.87
2022-08-27T05:07:09.188Z,20.93
2022-08-27T05:09:36.469Z,20.88
2022-08-27T05:12:03.636Z,20.89
2022-08-27T05:14:30.543Z,21.09
2022-08-27T05:17:00.448Z,21.14
2022-08-27T05:19:27.580Z,21.16
2022-08-27T05:21:54.082Z,20.98
2022-08-27T05:24:21.490Z,20.93
2022-08-27T05:26:49.586Z,21.04
2022-08-27T05:29:16.958Z,20.97
2022-08-27T05:31:43.649Z,21.15
2022-08-27T05:34:18.718Z,21.15
2022-08-27T05:36:53.199Z,21.24
2022-08-27T05:39:19.757Z,21.37
2022-08-27T05:41:46.301Z,21.30
2022-08-27T05:44:39.581Z,21.22
2022-08-27T05:46:59.799Z,21.12
2022-08-27T05:49:26.307Z,21.06
2022-08-27T05:51:52.845Z,21.21
2022-08-27T05:54:19.724Z,21.16
2022-08-27T05:56:47.954Z,21.16
2022-08-27T05:59:34.620Z,21.16
2022-08-27T06:02:02.322Z,21.13
2022-08-27T06:04:28.871Z,21.24
2022-08-27T06:06:55.376Z,21.22
2022-08-27T06:09:25.011Z,21.36
2022-08-27T06:11:54.364Z,21.37
2022-08-27T06:14:21.068Z,21.37
2022-08-27T06:16:48.553Z,21.32
2022-08-27T06:19:15.203Z,21.33
2022-08-27T06:21:42.493Z,21.61
2022-08-27T06:24:12.255Z,21.60
2022-08-27T06:26:40.824Z,21.56
2022-08-27T06:29:09.448Z,21.67
2022-08-27T06:31:36.077Z,21.63
2022-08-27T06:34:07.672Z,21.74
2022-08-27T06:36:39.111Z,21.71
2022-08-27T06:39:07.258Z,21.85
2022-08-27T06:41:35.072Z,21.86
2022-08-27T06:44:01.612Z,21.88
2022-08-27T06:46:29.650Z,21.83
2022-08-27T06:48:59.422Z,21.94
2022-08-27T06:51:32.447Z,21.92
2022-08-27T06:54:02.070Z,21.97
2022-08-27T06:56:29.806Z,21.90
2022-08-27T06:58:58.569Z,21.87
2022-08-27T07:01:31.597Z,21.90
2022-08-27T07:04:00.403Z,21.85
2022-08-27T07:06:29.431Z,21.86
2022-08-27T07:08:57.192Z,21.99
2022-08-27T07:11:24.286Z,22.17
2022-08-27T07:13:51.447Z,22.23
2022-08-27T07:16:23.961Z,22.34
2022-08-27T07:18:52.695Z,22.23
2022-08-27T07:21:20.285Z,22.23
2022-08-27T07:23:48.970Z,22.18
2022-08-27T07:26:16.308Z,22.26
2022-08-27T07:28:44.536Z,22.33
2022-08-27T07:31:13.535Z,22.38
2022-08-27T07:33:42.176Z,22.39
2022-08-27T07:36:18.864Z,22.45
2022-08-27T07:38:46.232Z,22.42
2022-08-27T07:41:23.449Z,22.43
2022-08-27T07:44:15.460Z,22.49
2022-08-27T07:46:47.577Z,22.45
2022-08-27T07:49:15.218Z,22.50
2022-08-27T07:51:41.708Z,22.62
2022-08-27T07:54:09.012Z,22.60
2022-08-27T07:56:35.523Z,22.63
2022-08-27T07:59:02.038Z,22.55
2022-08-27T08:01:29.675Z,22.63
2022-08-27T08:03:56.932Z,22.66
2022-08-27T08:06:23.462Z,22.79
2022-08-27T08:08:50.134Z,22.85
2022-08-27T08:11:18.572Z,22.83
2022-08-27T08:13:46.416Z,23.05
2022-08-27T08:16:13.549Z,23.03
2022-08-27T08:18:40.676Z,23.07
2022-08-27T08:21:13.115Z,23.37
2022-08-27T08:23:40.606Z,24.05
2022-08-27T08:26:08.322Z,24.78
2022-08-27T08:28:34.851Z,25.82
2022-08-27T08:31:01.649Z,26.01
2022-08-27T08:33:29.727Z,26.40
2022-08-27T08:36:03.285Z,26.68
2022-08-27T08:38:30.024Z,26.92
2022-08-27T08:40:56.620Z,27.17
2022-08-27T08:43:38.212Z,27.04
2022-08-27T08:46:33.964Z,27.44
2022-08-27T08:49:34.943Z,27.23
2022-08-27T08:52:30.430Z,27.67
2022-08-27T08:55:34.541Z,27.27
2022-08-27T08:58:06.822Z,27.19
2022-08-27T09:00:33.602Z,27.30
2022-08-27T09:03:00.129Z,26.94
2022-08-27T09:05:27.179Z,27.07
2022-08-27T09:08:21.314Z,27.11
2022-08-27T09:11:15.346Z,26.92
2022-08-27T09:13:51.710Z,26.91
2022-08-27T09:16:18.958Z,27.10
2022-08-27T09:18:45.828Z,27.03
2022-08-27T09:21:29.921Z,27.20
2022-08-27T09:24:27.569Z,27.08
2022-08-27T09:26:54.374Z,27.14
2022-08-27T09:29:21.011Z,27.00
2022-08-27T09:31:55.744Z,27.45
2022-08-27T09:34:23.568Z,27.40
2022-08-27T09:36:55.369Z,27.16
2022-08-27T09:39:32.600Z,27.65
2022-08-27T09:41:59.680Z,27.79
2022-08-27T09:44:26.409Z,28.17
2022-08-27T09:47:03.876Z,28.28
2022-08-27T09:49:34.505Z,28.54
2022-08-27T09:52:02.267Z,28.62
2022-08-27T09:54:44.378Z,28.17
2022-08-27T09:57:15.244Z,27.87
2022-08-27T09:59:53.191Z,28.34
2022-08-27T10:02:25.611Z,28.51
2022-08-27T10:04:55.505Z,28.11
2022-08-27T10:07:41.636Z,28.38
2022-08-27T10:10:22.112Z,28.49
2022-08-27T10:13:18.658Z,28.53
2022-08-27T10:16:06.506Z,29.12
2022-08-27T10:18:59.572Z,29.79
2022-08-27T10:21:33.955Z,29.67
2022-08-27T10:24:26.809Z,30.80
2022-08-27T10:26:59.459Z,31.15
2022-08-27T10:29:57.660Z,31.41
2022-08-27T10:32:32.400Z,31.40
2022-08-27T10:35:17.928Z,32.90
2022-08-27T10:38:13.876Z,32.13
2022-08-27T10:41:02.405Z,31.97
2022-08-27T10:43:47.089Z,34.35
2022-08-27T10:46:39.357Z,36.29
2022-08-27T10:49:26.873Z,36.27
2022-08-27T10:52:18.663Z,36.10
2022-08-27T10:54:59.069Z,36.57
2022-08-27T10:57:56.354Z,37.41
2022-08-27T11:00:41.894Z,37.67
2022-08-27T11:03:26.229Z,38.09
2022-08-27T11:06:03.436Z,39.45
2022-08-27T11:08:54.085Z,38.76
2022-08-27T11:14:30.527Z,40.34
2022-08-27T11:17:04.454Z,41.07
2022-08-27T11:19:47.365Z,41.85
2022-08-27T11:22:26.509Z,41.68
2022-08-27T11:25:15.084Z,40.90
2022-08-27T11:27:42.920Z,41.73
2022-08-27T11:30:47.840Z,40.86
2022-08-27T11:33:52.405Z,38.94
2022-08-27T11:36:28.043Z,40.29
2022-08-27T11:39:05.155Z,40.02
2022-08-27T11:42:09.354Z,39.12
2022-08-27T11:44:42.812Z,39.69
2022-08-27T11:47:09.416Z,40.40
2022-08-27T11:49:47.620Z,40.63
2022-08-27T11:52:41.209Z,42.79
2022-08-27T11:55:14.574Z,39.46
2022-08-27T11:57:42.815Z,36.63
2022-08-27T12:00:20.530Z,38.12
2022-08-27T12:03:23.410Z,39.08
2022-08-27T12:06:07.665Z,40.84
2022-08-27T12:08:35.521Z,42.22
2022-08-27T12:11:01.956Z,41.45
2022-08-27T12:13:41.380Z,41.65
2022-08-27T12:16:12.618Z,41.95
2022-08-27T12:19:10.212Z,41.54
2022-08-27T12:21:39.431Z,38.85
2022-08-27T12:24:37.366Z,38.68
2022-08-27T12:27:21.944Z,38.42
2022-08-27T12:29:58.171Z,40.42
2022-08-27T12:32:29.883Z,41.26
2022-08-27T12:35:03.161Z,40.98
2022-08-27T12:37:36.178Z,40.49
2022-08-27T12:40:20.625Z,39.41
2022-08-27T12:42:50.548Z,40.64
2022-08-27T12:45:25.578Z,41.30
2022-08-27T12:47:55.324Z,40.05
2022-08-27T12:50:30.596Z,38.37
2022-08-27T12:53:15.806Z,36.03
2022-08-27T12:55:59.925Z,36.38
2022-08-27T12:58:26.347Z,37.30
2022-08-27T13:01:11.801Z,35.59
2022-08-27T13:03:42.419Z,34.72
2022-08-27T13:06:35.935Z,36.20
2022-08-27T13:09:05.737Z,36.72
2022-08-27T13:11:35.994Z,37.97
2022-08-27T13:14:12.324Z,38.87
2022-08-27T13:16:46.717Z,39.51
2022-08-27T13:19:21.670Z,39.12
2022-08-27T13:21:51.012Z,38.44
2022-08-27T13:24:35.503Z,39.78
2022-08-27T13:27:05.294Z,39.90
2022-08-27T13:29:33.029Z,39.08
2022-08-27T13:32:00.427Z,37.22
2022-08-27T13:34:32.348Z,34.94
2022-08-27T13:37:04.272Z,33.45
2022-08-27T13:39:30.829Z,32.05
2022-08-27T13:42:02.448Z,31.09
2022-08-27T13:44:37.766Z,30.10
2022-08-27T13:47:14.298Z,30.42
2022-08-27T13:49:41.096Z,30.34
2022-08-27T13:53:01.862Z,30.96
2022-08-27T13:55:30.447Z,30.75
2022-08-27T13:58:00.396Z,30.82
2022-08-27T14:00:32.782Z,30.68
2022-08-27T14:03:00.998Z,31.43
2022-08-27T14:05:33.868Z,31.17
2022-08-27T14:08:12.296Z,30.23
2022-08-27T14:10:44.365Z,30.32
2022-08-27T14:13:22.796Z,31.18
2022-08-27T14:15:58.518Z,31.41
2022-08-27T14:18:57.315Z,30.61
2022-08-27T14:21:18.544Z,29.87
2022-08-27T14:23:45.043Z,29.05
2022-08-27T14:26:13.397Z,28.70
2022-08-27T14:28:39.872Z,28.19
2022-08-27T14:31:06.507Z,28.05
2022-08-27T14:33:33.098Z,27.91
2022-08-27T14:35:59.755Z,27.35
2022-08-27T14:38:31.663Z,27.46
2022-08-27T14:40:58.591Z,27.20
2022-08-27T14:43:25.772Z,26.94
2022-08-27T14:45:53.427Z,26.65
2022-08-27T14:48:28.985Z,26.32
2022-08-27T14:50:56.731Z,26.19
2022-08-27T14:53:23.464Z,26.52
2022-08-27T14:55:51.641Z,26.21
2022-08-27T14:58:18.676Z,26.42
2022-08-27T15:00:45.185Z,25.57
2022-08-27T15:03:12.079Z,25.87
2022-08-27T15:05:38.685Z,26.39
2022-08-27T15:08:05.301Z,26.67
2022-08-27T15:10:32.333Z,26.90
2022-08-27T15:12:59.080Z,26.88
2022-08-27T15:15:25.570Z,26.94
2022-08-27T15:17:52.056Z,26.84
2022-08-27T15:20:19.808Z,27.02
2022-08-27T15:22:48.254Z,26.82
2022-08-27T15:25:15.444Z,26.84
2022-08-27T15:27:42.032Z,26.44
2022-08-27T15:30:12.256Z,26.34
2022-08-27T15:32:46.528Z,26.15
2022-08-27T15:35:17.195Z,26.16
2022-08-27T15:37:44.655Z,26.17
2022-08-27T15:40:13.189Z,26.28
2022-08-27T15:42:40.687Z,26.08
2022-08-27T15:45:08.272Z,25.93
2022-08-27T15:47:36.033Z,25.84
2022-08-27T15:50:02.615Z,25.94
2022-08-27T15:52:36.373Z,25.71
2022-08-27T15:55:14.805Z,25.71
2022-08-27T15:57:41.304Z,25.65
2022-08-27T16:00:08.974Z,25.63
2022-08-27T16:02:35.648Z,25.67
2022-08-27T16:05:02.241Z,25.38
2022-08-27T16:07:28.708Z,25.33
2022-08-27T16:09:55.325Z,25.20
2022-08-27T16:12:26.818Z,25.26
2022-08-27T16:14:54.973Z,24.94
2022-08-27T16:17:21.673Z,24.98
2022-08-27T16:19:48.269Z,25.10
2022-08-27T16:22:16.169Z,25.42
2022-08-27T16:24:42.668Z,25.25
2022-08-27T16:27:09.315Z,25.37
2022-08-27T16:29:35.785Z,25.11
2022-08-27T16:32:02.658Z,24.74
2022-08-27T16:34:29.374Z,24.85
2022-08-27T16:36:56.555Z,24.85
2022-08-27T16:39:23.534Z,24.80
2022-08-27T16:41:50.369Z,24.74
2022-08-27T16:44:17.665Z,24.69
2022-08-27T16:46:44.256Z,24.78
2022-08-27T16:49:29.225Z,24.78
2022-08-27T16:51:55.772Z,24.62
2022-08-27T16:54:22.554Z,24.64
2022-08-27T16:56:49.700Z,24.64
2022-08-27T16:59:16.714Z,24.69
2022-08-27T17:01:45.399Z,24.69
2022-08-27T17:04:19.393Z,24.95
2022-08-27T17:06:54.757Z,24.86
2022-08-27T17:09:21.377Z,24.85
2022-08-27T17:11:54.823Z,24.92
2022-08-27T17:14:21.475Z,24.95
2022-08-27T17:16:48.297Z,24.94
2022-08-27T17:19:16.859Z,25.03
2022-08-27T17:21:45.296Z,25.10
2022-08-27T17:24:13.109Z,24.94
2022-08-27T17:26:40.479Z,24.98
2022-08-27T17:29:06.969Z,24.95
2022-08-27T17:31:37.154Z,24.85
2022-08-27T17:34:06.965Z,24.88
2022-08-27T17:36:34.705Z,24.61
2022-08-27T17:39:02.687Z,24.60
2022-08-27T17:41:36.652Z,24.46
2022-08-27T17:44:07.713Z,24.55
2022-08-27T17:46:34.186Z,24.52
2022-08-27T17:49:00.782Z,24.57
2022-08-27T17:51:27.958Z,24.62
2022-08-27T17:54:00.567Z,24.57
2022-08-27T17:56:29.729Z,24.44
2022-08-27T17:58:56.634Z,24.42
2022-08-27T18:01:28.357Z,24.48
2022-08-27T18:03:56.799Z,24.43
2022-08-27T18:06:24.348Z,24.42
2022-08-27T18:08:51.201Z,24.24
2022-08-27T18:11:17.852Z,24.11
2022-08-27T18:13:48.122Z,24.13
2022-08-27T18:16:14.586Z,24.14
2022-08-27T18:18:41.375Z,24.13
2022-08-27T18:21:08.413Z,24.10
2022-08-27T18:23:37.117Z,24.02
2022-08-27T18:26:05.412Z,24.06
2022-08-27T18:28:34.051Z,24.11
2022-08-27T18:31:05.618Z,23.99
2022-08-27T18:33:33.229Z,23.86
2022-08-27T18:35:59.746Z,23.80
2022-08-27T18:38:26.779Z,23.77
2022-08-27T18:40:54.604Z,23.78
2022-08-27T18:43:29.666Z,23.81
2022-08-27T18:45:56.399Z,23.65
2022-08-27T18:48:23.770Z,23.57
2022-08-27T18:50:55.491Z,23.68
2022-08-27T18:53:22.049Z,23.68
2022-08-27T18:55:49.445Z,23.72
2022-08-27T18:58:16.934Z,23.66
2022-08-27T19:00:47.078Z,23.65
2022-08-27T19:03:20.234Z,23.58
2022-08-27T19:05:46.710Z,23.63
2022-08-27T19:08:13.444Z,23.61
2022-08-27T19:10:40.026Z,23.60
2022-08-27T19:13:06.531Z,23.65
2022-08-27T19:15:33.101Z,23.63
2022-08-27T19:18:03.131Z,23.62
2022-08-27T19:20:31.433Z,23.61
2022-08-27T19:22:59.364Z,23.68
2022-08-27T19:25:27.921Z,23.67
2022-08-27T19:27:55.584Z,23.73
2022-08-27T19:30:22.323Z,23.76
2022-08-27T19:32:48.937Z,23.62
2022-08-27T19:35:21.514Z,23.67
2022-08-27T19:37:52.816Z,23.55
2022-08-27T19:40:22.116Z,23.41
2022-08-27T19:42:49.531Z,23.46
2022-08-27T19:45:15.987Z,23.52
2022-08-27T19:47:50.834Z,23.41
2022-08-27T19:50:17.986Z,23.39
2022-08-27T19:52:44.724Z,23.17
2022-08-27T19:55:14.335Z,23.00
2022-08-27T19:57:42.260Z,22.76
2022-08-27T20:00:11.440Z,22.92
2022-08-27T20:02:38.125Z,23.00
2022-08-27T20:05:22.032Z,22.92
2022-08-27T20:07:50.166Z,22.77
2022-08-27T20:10:18.921Z,22.76
2022-08-27T20:12:45.435Z,22.70
2022-08-27T20:15:13.304Z,22.72
2022-08-27T20:17:40.699Z,22.71
2022-08-27T20:20:08.305Z,22.44
2022-08-27T20:22:34.766Z,22.28
2022-08-27T20:25:01.266Z,22.46
2022-08-27T20:27:28.389Z,22.39
2022-08-27T20:29:54.898Z,22.00
2022-08-27T20:32:22.806Z,22.06
2022-08-27T20:34:51.505Z,21.83
2022-08-27T20:37:18.362Z,21.76
2022-08-27T20:39:45.077Z,22.06
2022-08-27T20:42:11.716Z,22.08
2022-08-27T20:44:38.573Z,22.04
2022-08-27T20:47:06.262Z,22.12
2022-08-27T20:49:35.153Z,21.98
2022-08-27T20:52:04.189Z,22.12
2022-08-27T20:54:33.733Z,22.03
2022-08-27T20:57:00.946Z,21.88
2022-08-27T20:59:46.140Z,21.79
2022-08-27T21:02:14.934Z,21.71
2022-08-27T21:04:47.785Z,21.85
2022-08-27T21:07:16.398Z,21.80
2022-08-27T21:09:56.225Z,21.64
2022-08-27T21:12:25.531Z,21.67
2022-08-27T21:14:55.806Z,21.57
2022-08-27T21:17:24.666Z,21.52
2022-08-27T21:19:51.191Z,21.51
2022-08-27T21:22:18.010Z,21.56
2022-08-27T21:24:46.318Z,21.54
2022-08-27T21:27:13.525Z,21.33
2022-08-27T21:29:40.750Z,21.30
2022-08-27T21:32:07.313Z,21.29
2022-08-27T21:34:33.770Z,21.26
2022-08-27T21:37:00.289Z,21.23
2022-08-27T21:39:26.763Z,21.20
2022-08-27T21:41:54.361Z,21.12
2022-08-27T21:44:22.416Z,21.15
2022-08-27T21:46:48.926Z,21.28
2022-08-27T21:49:15.441Z,21.29
2022-08-27T21:51:42.008Z,21.33
2022-08-27T21:54:08.506Z,21.04
2022-08-27T21:56:35.000Z,20.85
2022-08-27T21:59:01.487Z,20.81
2022-08-27T22:01:28.323Z,21.09
2022-08-27T22:03:55.219Z,20.67
2022-08-27T22:06:21.753Z,20.84
2022-08-27T22:08:48.578Z,20.67
2022-08-27T22:11:15.333Z,20.63
2022-08-27T22:13:41.955Z,20.49
2022-08-27T22:16:08.528Z,20.45
2022-08-27T22:18:35.142Z,20.43
2022-08-27T22:21:05.607Z,20.48
2022-08-27T22:23:32.109Z,20.44
2022-08-27T22:25:58.945Z,20.55
2022-08-27T22:28:25.707Z,20.40
2022-08-27T22:30:52.202Z,20.54
2022-08-27T22:33:18.944Z,20.51
2022-08-27T22:35:45.400Z,20.52
2022-08-27T22:38:12.019Z,20.63
2022-08-27T22:40:39.383Z,20.46
2022-08-27T22:43:06.730Z,20.23
2022-08-27T22:45:34.588Z,20.19
2022-08-27T22:48:01.050Z,20.30
2022-08-27T22:50:27.569Z,20.24
2022-08-27T22:52:54.181Z,20.28
2022-08-27T22:55:22.373Z,20.42
2022-08-27T22:57:50.706Z,20.27
2022-08-27T23:00:21.328Z,20.20
2022-08-27T23:02:47.884Z,20.29
2022-08-27T23:05:16.363Z,20.21
2022-08-27T23:07:43.472Z,20.20
2022-08-27T23:10:12.533Z,20.33
2022-08-27T23:12:39.098Z,20.13
2022-08-27T23:15:08.445Z,20.07
2022-08-27T23:17:35.116Z,20.06
2022-08-27T23:20:02.131Z,20.20
2022-08-27T23:22:28.814Z,20.19
2022-08-27T23:25:13.535Z,20.29
2022-08-27T23:27:40.645Z,20.29
2022-08-27T23:30:08.067Z,20.26
2022-08-27T23:32:35.494Z,20.24
2022-08-27T23:35:02.335Z,19.99
2022-08-27T23:37:28.923Z,20.05
2022-08-27T23:39:55.819Z,20.19
2022-08-27T23:42:23.443Z,20.12
2022-08-27T23:44:50.444Z,20.13
2022-08-27T23:47:17.748Z,20.21
2022-08-27T23:49:44.428Z,20.24
2022-08-27T23:52:12.003Z,19.98
2022-08-27T23:54:38.621Z,19.92
2022-08-27T23:57:05.205Z,19.92
2022-08-27T23:59:31.769Z,19.82
